Time;durP1;ratioP1;P1;durP2;ratioP2;P2;SDS_P1;SDS_P2;PMS_P1;PMS_P2;Temp;Humidity;BMP_temperature;BMP_pressure;BME280_temperature;BME280_humidity;BME280_pressure;Samples;Min_cycle;Max_cycle;Signal;HPM_P1;HPM_P2
2021/03/05 00:02:03;;;;;;;8.18;4.78;;;8.60;99.90;;;;;;5112799;28;20437;-84
2021/03/05 00:04:31;;;;;;;8.90;5.30;;;8.60;99.90;;;;;;5111510;28;20045;-83
2021/03/05 00:06:58;;;;;;;9.63;5.00;;;8.60;99.90;;;;;;5112745;28;20570;-85
2021/03/05 00:09:25;;;;;;;9.70;5.72;;;8.60;99.90;;;;;;5112874;28;20044;-85
2021/03/05 00:11:51;;;;;;;10.23;5.50;;;8.60;99.90;;;;;;5111203;28;20071;-82
2021/03/05 00:14:18;;;;;;;8.25;4.47;;;8.70;99.90;;;;;;5110128;28;20048;-82
2021/03/05 00:16:45;;;;;;;8.82;4.57;;;8.70;99.90;;;;;;5111448;28;20130;-82
2021/03/05 00:19:11;;;;;;;8.85;5.15;;;8.70;99.90;;;;;;5093864;28;20130;-81
2021/03/05 00:21:39;;;;;;;8.48;5.15;;;8.70;99.90;;;;;;5111459;28;20051;-84
2021/03/05 00:24:07;;;;;;;7.03;4.47;;;8.70;99.90;;;;;;5112004;28;20111;-84
2021/03/05 00:26:33;;;;;;;9.20;4.85;;;8.70;99.90;;;;;;5111643;28;20104;-84
2021/03/05 00:29:00;;;;;;;9.13;5.40;;;8.70;99.90;;;;;;5093502;28;20052;-84
2021/03/05 00:31:26;;;;;;;13.10;8.25;;;8.80;99.90;;;;;;5093245;28;20107;-83
2021/03/05 00:33:53;;;;;;;8.77;5.15;;;8.80;99.90;;;;;;5112156;28;20130;-83
2021/03/05 00:36:19;;;;;;;10.02;4.95;;;8.80;99.90;;;;;;5111402;28;20040;-84
2021/03/05 00:38:47;;;;;;;7.50;4.80;;;8.80;99.90;;;;;;5094491;28;20456;-86
2021/03/05 00:41:13;;;;;;;7.95;4.90;;;8.80;99.90;;;;;;5112294;28;20056;-85
2021/03/05 00:43:40;;;;;;;8.48;5.30;;;8.80;99.90;;;;;;5112133;28;20138;-85
2021/03/05 00:46:07;;;;;;;7.72;4.47;;;8.80;99.90;;;;;;5111732;28;20134;-86
2021/03/05 00:48:33;;;;;;;8.73;5.03;;;8.70;99.90;;;;;;5111983;28;20047;-84
2021/03/05 00:51:00;;;;;;;8.00;4.97;;;8.70;99.90;;;;;;5111086;28;20121;-83
2021/03/05 00:53:26;;;;;;;8.45;4.85;;;8.80;99.90;;;;;;5111156;28;20468;-82
2021/03/05 00:55:55;;;;;;;9.95;5.07;;;8.70;99.90;;;;;;5124978;27;20058;-82
2021/03/05 00:58:22;;;;;;;10.00;5.20;;;8.80;99.90;;;;;;5110877;28;20079;-81
2021/03/05 01:00:48;;;;;;;8.90;5.03;;;8.80;99.90;;;;;;5109457;28;20122;-84
2021/03/05 01:03:15;;;;;;;11.98;7.15;;;8.80;99.90;;;;;;5099675;28;20122;-83
2021/03/05 01:05:42;;;;;;;11.75;7.45;;;8.80;99.90;;;;;;5110270;28;20071;-84
2021/03/05 01:08:10;;;;;;;13.20;9.10;;;8.80;99.90;;;;;;5110548;28;20051;-83
2021/03/05 01:10:37;;;;;;;15.27;9.43;;;8.60;99.90;;;;;;5111278;28;20468;-83
2021/03/05 01:13:05;;;;;;;18.80;13.10;;;8.50;99.60;;;;;;5111413;28;20467;-82
2021/03/05 01:15:31;;;;;;;17.17;10.93;;;8.50;98.20;;;;;;5111450;28;20075;-83
2021/03/05 01:17:58;;;;;;;19.02;12.98;;;8.30;98.90;;;;;;5111741;28;20557;-83
2021/03/05 01:20:28;;;;;;;18.25;12.35;;;8.20;97.70;;;;;;5111431;28;20147;-83
2021/03/05 01:22:56;;;;;;;18.90;13.13;;;8.10;98.10;;;;;;5111243;28;20051;-85
2021/03/05 01:25:25;;;;;;;19.20;13.07;;;8.00;97.70;;;;;;5110932;28;21500;-86
2021/03/05 01:27:52;;;;;;;16.85;11.63;;;7.90;97.80;;;;;;5111426;28;20054;-85
2021/03/05 01:30:22;;;;;;;16.45;11.50;;;7.80;98.00;;;;;;5111629;28;20054;-85
2021/03/05 01:32:50;;;;;;;18.23;11.70;;;7.80;97.80;;;;;;5111565;28;20135;-86
2021/03/05 01:35:22;;;;;;;20.08;12.57;;;7.70;97.90;;;;;;5111441;28;20134;-85
2021/03/05 01:37:49;;;;;;;19.20;12.23;;;7.70;98.20;;;;;;5111329;28;20122;-86
2021/03/05 01:40:20;;;;;;;19.52;13.32;;;7.70;97.70;;;;;;5093324;28;20545;-83
2021/03/05 01:42:46;;;;;;;20.55;13.82;;;7.60;98.20;;;;;;5111087;28;20122;-83
2021/03/05 01:45:16;;;;;;;21.15;12.88;;;7.60;97.50;;;;;;5111092;28;20078;-82
2021/03/05 01:47:45;;;;;;;19.55;12.02;;;7.50;97.40;;;;;;5092711;28;20052;-82
2021/03/05 01:50:14;;;;;;;21.73;13.85;;;7.40;97.90;;;;;;5110791;28;20086;-83
2021/03/05 01:52:46;;;;;;;20.02;12.57;;;7.30;98.00;;;;;;5110865;28;20054;-82
2021/03/05 01:55:13;;;;;;;21.50;13.77;;;7.10;98.60;;;;;;5110395;28;20072;-83
2021/03/05 01:57:40;;;;;;;22.05;13.70;;;7.20;98.40;;;;;;5111179;28;20126;-83
2021/03/05 02:00:10;;;;;;;22.20;14.77;;;7.20;98.40;;;;;;5114613;28;20150;-83
2021/03/05 02:02:37;;;;;;;21.60;13.70;;;7.20;98.70;;;;;;5114800;28;20490;-82
2021/03/05 02:05:06;;;;;;;23.25;14.63;;;7.10;98.80;;;;;;5115168;28;20050;-82
2021/03/05 02:07:33;;;;;;;24.67;15.32;;;7.10;98.80;;;;;;5114654;28;20204;-83
2021/03/05 02:10:00;;;;;;;24.02;14.30;;;7.10;98.10;;;;;;5114759;28;20087;-83
2021/03/05 02:12:26;;;;;;;23.83;14.40;;;7.00;98.60;;;;;;5114944;28;20126;-83
2021/03/05 02:14:53;;;;;;;25.17;14.77;;;7.10;98.50;;;;;;5115217;28;20161;-84
2021/03/05 02:17:27;;;;;;;24.13;14.07;;;6.90;98.30;;;;;;5115266;28;20078;-85
2021/03/05 02:20:14;;;;;;;22.65;13.48;;;6.90;98.60;;;;;;5114990;28;20118;-84
2021/03/05 02:23:33;;;;;;;24.63;14.10;;;6.80;98.80;;;;;;5114938;28;20549;-85
2021/03/05 02:26:52;;;;;;;24.50;13.52;;;6.80;98.70;;;;;;5114458;28;20043;-85
2021/03/05 02:29:57;;;;;;;26.88;15.25;;;6.70;98.90;;;;;;5098189;28;20082;-85
2021/03/05 02:32:34;;;;;;;27.58;15.93;;;6.70;98.40;;;;;;5114790;28;20481;-85
2021/03/05 02:35:03;;;;;;;25.35;14.65;;;6.70;98.20;;;;;;5114311;28;20236;-85
2021/03/05 02:37:33;;;;;;;23.50;14.18;;;6.60;98.80;;;;;;5114490;28;20598;-85
2021/03/05 02:40:06;;;;;;;26.48;14.60;;;6.60;98.90;;;;;;5096775;28;20462;-85
2021/03/05 02:42:42;;;;;;;21.80;12.73;;;6.60;98.70;;;;;;5114236;28;20146;-82
2021/03/05 02:45:12;;;;;;;22.00;12.85;;;6.60;98.60;;;;;;5114067;28;20386;-81
2021/03/05 02:47:44;;;;;;;20.83;12.35;;;6.60;98.10;;;;;;5096269;28;20047;-82
2021/03/05 02:50:15;;;;;;;21.25;12.18;;;6.60;98.20;;;;;;5113661;28;20274;-83
2021/03/05 02:52:43;;;;;;;22.58;12.48;;;6.50;98.20;;;;;;5114244;28;20040;-82
2021/03/05 02:55:12;;;;;;;19.50;11.07;;;6.50;98.10;;;;;;5114242;28;20467;-81
2021/03/05 02:57:45;;;;;;;23.33;12.15;;;6.50;98.70;;;;;;5113187;28;20458;-82
2021/03/05 03:00:15;;;;;;;21.40;12.20;;;6.60;98.50;;;;;;5113081;28;20142;-82
2021/03/05 03:02:44;;;;;;;22.30;12.05;;;6.50;98.60;;;;;;5098255;28;20054;-81
2021/03/05 03:05:12;;;;;;;23.65;13.35;;;6.50;98.20;;;;;;5124206;27;20122;-82
2021/03/05 03:07:41;;;;;;;27.23;14.57;;;6.50;98.30;;;;;;5122133;27;20119;-82
2021/03/05 03:10:11;;;;;;;25.75;14.68;;;6.50;98.30;;;;;;5116295;28;20134;-83
2021/03/05 03:12:39;;;;;;;26.95;14.70;;;6.50;98.10;;;;;;5116424;28;20082;-82
2021/03/05 03:15:08;;;;;;;29.23;16.15;;;6.50;98.20;;;;;;5116264;28;20135;-81
2021/03/05 03:17:36;;;;;;;25.05;14.05;;;6.50;98.20;;;;;;5116114;28;20085;-81
2021/03/05 03:20:05;;;;;;;25.48;14.70;;;6.50;98.70;;;;;;5130426;27;20126;-82
2021/03/05 03:22:32;;;;;;;25.63;14.55;;;6.40;98.90;;;;;;5116038;28;20149;-82
2021/03/05 03:24:59;;;;;;;24.80;13.52;;;6.40;98.90;;;;;;5097923;28;20127;-81
2021/03/05 03:27:27;;;;;;;27.60;15.88;;;6.40;98.80;;;;;;5116532;28;20462;-84
2021/03/05 03:29:54;;;;;;;26.95;14.75;;;6.50;98.50;;;;;;5116682;28;20055;-81
2021/03/05 03:32:21;;;;;;;28.10;15.15;;;6.40;98.90;;;;;;5116431;28;20446;-82
2021/03/05 03:34:47;;;;;;;26.58;14.60;;;6.40;99.20;;;;;;5116051;28;20122;-85
2021/03/05 03:37:18;;;;;;;26.75;14.82;;;6.40;99.40;;;;;;5116627;28;20126;-83
2021/03/05 03:39:46;;;;;;;27.08;15.50;;;6.50;99.10;;;;;;5116611;28;20078;-82
2021/03/05 03:42:13;;;;;;;22.17;12.50;;;6.50;98.90;;;;;;5116593;28;20122;-84
2021/03/05 03:44:40;;;;;;;23.80;13.48;;;6.50;98.70;;;;;;5116563;28;20071;-83
2021/03/05 03:47:06;;;;;;;24.48;13.70;;;6.50;98.90;;;;;;5116354;28;20434;-83
2021/03/05 03:49:40;;;;;;;21.85;12.50;;;6.60;99.10;;;;;;5116244;28;20154;-82
2021/03/05 03:52:16;;;;;;;19.00;11.13;;;6.60;98.80;;;;;;5116114;28;20135;-81
2021/03/05 03:54:46;;;;;;;23.98;13.32;;;6.50;98.80;;;;;;5115963;28;20735;-81
2021/03/05 03:57:17;;;;;;;20.75;11.50;;;6.60;98.70;;;;;;5116092;28;20049;-82
2021/03/05 03:59:45;;;;;;;21.17;12.75;;;6.50;98.60;;;;;;5115865;28;20568;-82
2021/03/05 04:02:29;;;;;;;21.08;12.18;;;6.50;98.20;;;;;;5115146;28;20166;-83
2021/03/05 04:04:58;;;;;;;21.17;12.35;;;6.50;97.60;;;;;;5093893;28;20079;-84
2021/03/05 04:07:27;;;;;;;18.00;10.90;;;6.50;98.00;;;;;;5075640;28;20127;-84
2021/03/05 04:09:55;;;;;;;18.63;10.73;;;6.40;98.00;;;;;;5091291;28;20048;-82
2021/03/05 04:12:45;;;;;;;18.17;10.90;;;6.20;98.00;;;;;;5106053;28;20052;-83
2021/03/05 04:15:13;;;;;;;15.52;9.07;;;6.10;98.10;;;;;;5095917;28;20047;-82
2021/03/05 04:17:40;;;;;;;14.75;8.40;;;6.00;98.50;;;;;;5113417;28;20079;-83
2021/03/05 04:20:09;;;;;;;17.13;9.15;;;5.90;98.90;;;;;;5113351;28;20122;-84
2021/03/05 04:22:36;;;;;;;15.55;9.27;;;5.80;99.10;;;;;;5095083;28;20433;-83
2021/03/05 04:25:05;;;;;;;17.20;9.43;;;5.80;99.50;;;;;;5096141;28;20134;-84
2021/03/05 04:27:32;;;;;;;19.23;10.73;;;5.80;99.70;;;;;;5113305;28;20094;-85
2021/03/05 04:29:59;;;;;;;17.77;9.95;;;5.80;99.80;;;;;;5113410;28;20177;-83
2021/03/05 04:32:25;;;;;;;17.83;9.75;;;5.80;99.80;;;;;;5095207;28;20104;-82
2021/03/05 04:34:52;;;;;;;18.90;11.07;;;5.90;99.70;;;;;;5095210;28;20466;-81
2021/03/05 04:37:19;;;;;;;18.85;10.20;;;5.90;99.70;;;;;;5112948;28;20126;-81
2021/03/05 04:39:45;;;;;;;19.55;10.95;;;6.00;99.60;;;;;;5094777;28;20122;-82
2021/03/05 04:42:13;;;;;;;21.10;11.68;;;6.00;99.40;;;;;;5094785;28;20213;-81
2021/03/05 04:44:40;;;;;;;18.95;11.35;;;6.10;99.40;;;;;;5112802;28;20044;-81
2021/03/05 04:47:06;;;;;;;19.42;11.10;;;6.10;99.40;;;;;;5094257;28;20048;-82
2021/03/05 04:49:33;;;;;;;20.48;11.75;;;6.10;99.60;;;;;;5112961;28;20059;-82
2021/03/05 04:51:59;;;;;;;19.77;11.63;;;6.10;99.60;;;;;;5112373;28;20255;-81
2021/03/05 04:54:26;;;;;;;20.38;11.80;;;6.20;99.10;;;;;;5112508;28;20135;-81
2021/03/05 04:56:53;;;;;;;21.38;11.50;;;6.20;98.90;;;;;;5112627;28;20500;-81
2021/03/05 04:59:20;;;;;;;20.73;11.65;;;6.20;98.90;;;;;;5094403;28;20145;-83
2021/03/05 05:01:47;;;;;;;19.90;12.15;;;6.10;98.60;;;;;;5111231;28;20135;-81
2021/03/05 05:04:14;;;;;;;20.05;12.15;;;6.00;98.70;;;;;;5112206;28;20411;-80
2021/03/05 05:06:40;;;;;;;21.10;12.20;;;6.00;98.70;;;;;;5100441;28;20188;-81
2021/03/05 05:09:07;;;;;;;19.02;11.00;;;6.00;98.50;;;;;;5119159;28;20126;-83
2021/03/05 05:11:34;;;;;;;17.50;10.35;;;5.90;98.60;;;;;;5078071;28;20055;-83
2021/03/05 05:14:00;;;;;;;19.58;11.65;;;5.90;98.90;;;;;;5094408;28;20056;-83
2021/03/05 05:16:28;;;;;;;19.70;11.60;;;5.80;99.40;;;;;;5112048;28;20467;-83
2021/03/05 05:18:55;;;;;;;20.17;11.77;;;5.90;99.90;;;;;;5112546;28;20098;-82
2021/03/05 05:21:22;;;;;;;18.60;11.68;;;5.80;99.30;;;;;;5112673;28;20204;-82
2021/03/05 05:23:48;;;;;;;18.08;11.50;;;5.90;99.10;;;;;;5111596;28;20054;-79
2021/03/05 05:26:16;;;;;;;18.60;10.93;;;5.80;98.80;;;;;;5111584;28;20047;-77
2021/03/05 05:28:42;;;;;;;18.48;11.13;;;5.90;99.20;;;;;;5111651;28;20044;-77
2021/03/05 05:31:09;;;;;;;15.07;9.40;;;5.70;99.50;;;;;;5112019;28;20071;-77
2021/03/05 05:33:36;;;;;;;11.65;7.57;;;5.80;99.20;;;;;;5110417;28;20126;-76
2021/03/05 05:36:04;;;;;;;11.63;7.95;;;5.70;99.10;;;;;;5111512;28;20074;-77
2021/03/05 05:38:30;;;;;;;11.95;7.55;;;5.60;99.40;;;;;;5111431;28;20442;-78
2021/03/05 05:41:00;;;;;;;11.02;6.85;;;5.60;99.50;;;;;;5110295;28;20090;-78
2021/03/05 05:43:30;;;;;;;11.60;8.02;;;5.60;99.40;;;;;;5111268;28;20382;-78
2021/03/05 05:46:04;;;;;;;11.70;7.85;;;5.50;99.00;;;;;;5093866;28;20485;-78
2021/03/05 05:48:34;;;;;;;11.52;7.40;;;5.50;99.40;;;;;;5092992;28;20146;-78
2021/03/05 05:51:02;;;;;;;11.60;7.60;;;5.40;99.20;;;;;;5094147;28;20043;-78
2021/03/05 05:53:35;;;;;;;11.25;7.10;;;5.30;99.60;;;;;;5110853;28;20128;-78
2021/03/05 05:56:02;;;;;;;12.27;7.88;;;5.30;99.40;;;;;;5111331;28;20090;-78
2021/03/05 05:58:29;;;;;;;12.27;8.23;;;5.20;99.60;;;;;;5111475;28;20687;-78
2021/03/05 06:00:57;;;;;;;10.80;7.00;;;5.20;99.70;;;;;;5111469;28;20825;-78
2021/03/05 06:03:28;;;;;;;12.10;7.72;;;5.20;99.90;;;;;;5110908;28;20048;-79
2021/03/05 06:05:57;;;;;;;12.05;7.35;;;5.20;99.90;;;;;;5111289;28;20076;-79
2021/03/05 06:08:24;;;;;;;12.73;8.07;;;5.20;99.80;;;;;;5093073;28;20043;-79
2021/03/05 06:10:53;;;;;;;13.80;8.75;;;5.20;99.80;;;;;;5111335;28;20083;-79
2021/03/05 06:13:20;;;;;;;12.27;8.05;;;5.20;99.90;;;;;;5111144;28;20055;-78
2021/03/05 06:16:13;;;;;;;13.23;8.15;;;5.20;99.90;;;;;;5110749;28;20078;-78
2021/03/05 06:18:40;;;;;;;12.15;8.05;;;5.20;99.90;;;;;;5092429;28;20076;-78
2021/03/05 06:21:07;;;;;;;10.85;6.72;;;5.20;99.90;;;;;;5111095;28;20054;-78
2021/03/05 06:23:36;;;;;;;11.45;7.32;;;5.20;99.90;;;;;;5127161;28;20131;-78
2021/03/05 06:26:04;;;;;;;12.25;8.23;;;5.20;99.90;;;;;;5131797;28;20050;-78
2021/03/05 06:28:31;;;;;;;13.68;8.00;;;5.30;99.90;;;;;;5131650;28;20067;-79
2021/03/05 06:30:57;;;;;;;12.45;8.20;;;5.40;99.90;;;;;;5131482;28;20090;-79
2021/03/05 06:33:28;;;;;;;13.43;8.02;;;5.40;99.90;;;;;;5118611;28;20047;-79
2021/03/05 06:35:55;;;;;;;12.90;8.20;;;5.40;99.90;;;;;;5110574;28;20051;-78
2021/03/05 06:38:43;;;;;;;14.30;8.50;;;5.40;99.90;;;;;;5110901;28;20546;-78
2021/03/05 06:41:22;;;;;;;13.00;7.60;;;5.50;99.90;;;;;;5098266;28;20134;-80
2021/03/05 06:43:51;;;;;;;13.25;8.60;;;5.50;99.90;;;;;;5088508;28;20040;-79
2021/03/05 06:46:34;;;;;;;13.18;8.05;;;5.40;99.90;;;;;;5112688;28;20054;-81
2021/03/05 06:49:04;;;;;;;12.57;7.75;;;5.60;99.90;;;;;;5109891;28;20088;-80
2021/03/05 06:51:30;;;;;;;13.20;7.80;;;5.60;99.90;;;;;;5106775;28;20181;-80
2021/03/05 06:54:14;;;;;;;11.75;6.93;;;5.60;99.90;;;;;;5114274;28;20487;-82
2021/03/05 06:56:45;;;;;;;13.68;7.82;;;5.60;99.90;;;;;;5111924;28;20126;-82
2021/03/05 06:59:15;;;;;;;10.90;7.28;;;5.70;99.90;;;;;;5101140;28;20135;-80
2021/03/05 07:01:47;;;;;;;11.90;7.50;;;5.70;99.90;;;;;;5093581;28;20474;-81
2021/03/05 07:04:16;;;;;;;12.02;7.57;;;5.70;99.90;;;;;;5094195;28;20126;-80
2021/03/05 07:06:42;;;;;;;11.05;6.82;;;5.70;99.90;;;;;;5095429;28;20424;-81
2021/03/05 07:09:22;;;;;;;13.45;7.60;;;5.70;99.90;;;;;;5110566;28;20130;-81
2021/03/05 07:11:49;;;;;;;14.68;8.00;;;5.70;99.90;;;;;;5106762;28;20143;-82
2021/03/05 07:14:16;;;;;;;11.90;7.20;;;5.70;99.50;;;;;;5095963;28;20264;-80
2021/03/05 07:16:46;;;;;;;11.18;6.65;;;5.70;99.70;;;;;;5109202;28;20443;-81
2021/03/05 07:19:16;;;;;;;13.45;7.50;;;5.80;99.80;;;;;;5104691;28;20481;-82
2021/03/05 07:21:45;;;;;;;12.15;7.45;;;5.70;99.70;;;;;;5104162;28;20099;-81
2021/03/05 07:24:15;;;;;;;12.13;7.40;;;5.80;99.70;;;;;;5098270;28;20054;-83
2021/03/05 07:26:44;;;;;;;12.27;7.22;;;5.80;99.70;;;;;;5112065;28;20134;-82
2021/03/05 07:29:18;;;;;;;12.00;6.80;;;5.80;99.70;;;;;;5112818;28;20398;-82
2021/03/05 07:31:46;;;;;;;10.25;5.90;;;5.70;99.80;;;;;;5094133;28;20131;-82
2021/03/05 07:34:18;;;;;;;12.40;7.32;;;5.70;99.90;;;;;;5093920;28;20131;-81
2021/03/05 07:36:50;;;;;;;12.82;7.20;;;5.80;99.70;;;;;;5094521;28;20123;-79
2021/03/05 07:39:25;;;;;;;13.30;8.30;;;5.70;99.70;;;;;;5112736;28;20143;-79
2021/03/05 07:41:55;;;;;;;11.50;7.15;;;5.80;99.60;;;;;;5095310;28;20126;-79
2021/03/05 07:44:24;;;;;;;12.95;6.97;;;5.70;99.70;;;;;;5094355;28;20036;-78
2021/03/05 07:46:52;;;;;;;10.98;6.28;;;5.80;99.70;;;;;;5112730;28;20071;-82
2021/03/05 07:49:26;;;;;;;11.57;6.43;;;5.70;99.80;;;;;;5076301;28;20048;-83
2021/03/05 07:51:57;;;;;;;13.35;7.68;;;5.70;99.80;;;;;;5112919;28;20071;-83
2021/03/05 07:54:48;;;;;;;13.13;7.13;;;5.70;99.90;;;;;;5112671;28;20138;-84
2021/03/05 07:57:47;;;;;;;13.50;6.95;;;5.80;99.80;;;;;;5102577;28;20143;-83
2021/03/05 08:00:31;;;;;;;15.35;7.65;;;5.80;99.60;;;;;;5092658;28;20063;-83
2021/03/05 08:02:59;;;;;;;;;;;5.70;99.50;;;;;;5079897;28;20052;-84
2021/03/05 08:05:36;;;;;;;12.27;6.30;;;5.70;99.60;;;;;;5119704;28;19916;-83
2021/03/05 08:08:20;;;;;;;16.05;8.55;;;5.70;99.80;;;;;;5115735;28;20477;-83
2021/03/05 08:10:56;;;;;;;;;;;5.70;99.50;;;;;;5088607;28;20128;-82
2021/03/05 08:13:50;;;;;;;13.57;7.07;;;5.70;99.30;;;;;;5093883;28;20430;-82
2021/03/05 08:16:33;;;;;;;;;;;5.70;99.80;;;;;;5084017;28;20856;-82
2021/03/05 08:22:27;;;;;;;12.35;6.30;;;5.80;99.60;;;;;;5106882;28;20052;-78
2021/03/05 08:25:25;;;;;;;12.90;7.10;;;5.70;99.70;;;;;;5111605;28;20134;-78
2021/03/05 08:27:52;;;;;;;12.57;7.18;;;5.70;99.90;;;;;;5112071;28;20130;-77
2021/03/05 08:30:21;;;;;;;12.77;7.72;;;5.70;99.70;;;;;;5112105;28;20051;-78
2021/03/05 08:32:57;;;;;;;12.52;7.13;;;5.70;99.60;;;;;;5093834;28;20076;-78
2021/03/05 08:35:49;;;;;;;12.45;7.20;;;5.70;99.60;;;;;;5092465;28;20126;-79
2021/03/05 08:38:34;;;;;;;14.02;7.38;;;5.60;99.90;;;;;;5094915;28;20066;-79
2021/03/05 08:41:05;;;;;;;15.38;7.85;;;5.70;99.80;;;;;;5081973;28;20148;-79
2021/03/05 08:43:35;;;;;;;12.93;7.53;;;5.70;99.70;;;;;;5102564;28;20056;-78
2021/03/05 08:46:04;;;;;;;12.43;6.97;;;5.80;99.60;;;;;;5090395;28;20560;-78
2021/03/05 08:48:38;;;;;;;16.15;7.75;;;5.80;99.70;;;;;;5083885;28;20048;-77
2021/03/05 08:51:12;;;;;;;14.02;7.80;;;5.80;99.70;;;;;;5109860;28;20158;-80
2021/03/05 08:53:42;;;;;;;13.25;7.38;;;5.90;99.30;;;;;;5092873;28;20079;-78
2021/03/05 08:56:11;;;;;;;13.48;7.72;;;5.90;99.50;;;;;;5093839;28;20132;-78
2021/03/05 08:58:39;;;;;;;16.65;8.77;;;5.90;99.40;;;;;;5111219;28;20134;-78
2021/03/05 09:01:06;;;;;;;14.07;7.72;;;5.90;99.10;;;;;;5104672;28;20139;-81
2021/03/05 09:03:33;;;;;;;12.48;7.40;;;5.90;99.20;;;;;;5111405;28;20167;-80
2021/03/05 09:05:59;;;;;;;12.90;7.35;;;6.00;99.00;;;;;;5111265;28;20142;-79
2021/03/05 09:08:27;;;;;;;13.60;7.82;;;6.10;99.10;;;;;;5093124;28;20618;-81
2021/03/05 09:10:57;;;;;;;14.25;8.02;;;6.20;99.20;;;;;;5110604;28;20512;-79
2021/03/05 09:13:25;;;;;;;11.60;6.85;;;6.20;98.70;;;;;;5093628;28;20497;-83
2021/03/05 09:15:56;;;;;;;13.93;7.47;;;6.20;98.90;;;;;;5091245;28;20390;-79
2021/03/05 09:18:24;;;;;;;14.60;7.60;;;6.30;99.10;;;;;;5093884;28;20071;-78
2021/03/05 09:20:54;;;;;;;12.52;7.28;;;6.30;98.80;;;;;;5111070;28;20560;-78
2021/03/05 09:23:29;;;;;;;13.70;7.45;;;6.40;98.70;;;;;;5111100;28;20078;-78
2021/03/05 09:25:57;;;;;;;13.57;7.32;;;6.40;98.10;;;;;;5110951;28;20062;-79
2021/03/05 09:28:25;;;;;;;14.40;8.20;;;6.40;98.30;;;;;;5092968;28;20047;-78
2021/03/05 09:30:56;;;;;;;13.00;7.68;;;6.40;98.00;;;;;;5110920;28;20471;-79
2021/03/05 09:33:32;;;;;;;12.10;6.90;;;6.40;98.20;;;;;;5110705;28;20521;-79
2021/03/05 09:36:05;;;;;;;12.45;7.40;;;6.40;98.20;;;;;;5111092;28;20138;-79
2021/03/05 09:38:33;;;;;;;14.23;7.93;;;6.40;98.00;;;;;;5092601;28;20078;-78
2021/03/05 09:41:20;;;;;;;12.60;7.07;;;6.50;97.80;;;;;;5110342;28;20510;-79
2021/03/05 09:43:58;;;;;;;14.88;8.30;;;6.50;97.80;;;;;;5110917;28;20048;-79
2021/03/05 09:46:28;;;;;;;14.95;8.60;;;6.50;97.80;;;;;;5092796;28;20139;-78
2021/03/05 09:48:56;;;;;;;13.07;7.47;;;6.60;97.90;;;;;;5110642;28;20440;-79
2021/03/05 09:51:24;;;;;;;11.82;6.70;;;6.60;98.10;;;;;;5110487;28;20600;-79
2021/03/05 09:53:54;;;;;;;13.65;7.57;;;6.50;98.10;;;;;;5095105;28;20131;-79
2021/03/05 09:56:23;;;;;;;13.38;7.03;;;6.50;98.20;;;;;;5108915;28;20126;-78
2021/03/05 09:58:56;;;;;;;15.18;8.05;;;6.60;97.90;;;;;;5092440;28;20066;-80
2021/03/05 10:01:25;;;;;;;13.02;7.40;;;6.50;97.80;;;;;;5092217;28;20143;-78
2021/03/05 10:03:56;;;;;;;13.20;7.10;;;6.50;97.90;;;;;;5110344;28;20079;-79
2021/03/05 10:06:23;;;;;;;14.52;7.60;;;6.60;97.90;;;;;;5110107;28;20557;-79
2021/03/05 10:09:04;;;;;;;13.20;7.65;;;6.60;97.80;;;;;;5110624;28;20043;-78
2021/03/05 10:11:35;;;;;;;12.88;7.18;;;6.60;97.90;;;;;;5110632;28;20103;-77
2021/03/05 10:14:04;;;;;;;14.30;7.93;;;6.70;98.00;;;;;;5109581;28;20044;-76
2021/03/05 10:16:34;;;;;;;12.93;7.10;;;6.90;97.80;;;;;;5092206;28;20114;-76
2021/03/05 10:19:06;;;;;;;11.13;6.35;;;6.70;97.50;;;;;;5110971;28;20097;-77
2021/03/05 10:21:34;;;;;;;12.73;7.07;;;6.80;97.70;;;;;;5113973;28;20048;-77
2021/03/05 10:24:06;;;;;;;12.52;7.10;;;6.70;97.50;;;;;;5114109;28;20403;-77
2021/03/05 10:26:36;;;;;;;11.75;6.95;;;6.80;97.70;;;;;;5096557;28;20138;-78
2021/03/05 10:29:04;;;;;;;13.30;7.43;;;6.80;97.40;;;;;;5114329;28;20085;-77
2021/03/05 10:31:50;;;;;;;12.73;6.80;;;6.80;97.10;;;;;;5114108;28;20449;-77
2021/03/05 10:34:27;;;;;;;13.00;7.20;;;6.80;97.20;;;;;;5114098;28;20138;-77
2021/03/05 10:36:56;;;;;;;11.93;6.70;;;6.80;96.90;;;;;;5113963;28;20058;-76
2021/03/05 10:39:26;;;;;;;12.32;7.30;;;6.80;97.10;;;;;;5113926;28;20498;-77
2021/03/05 10:41:56;;;;;;;12.75;7.38;;;6.80;96.90;;;;;;5114130;28;20491;-77
2021/03/05 10:44:24;;;;;;;11.82;7.00;;;6.90;97.00;;;;;;5114208;28;20083;-78
2021/03/05 10:46:52;;;;;;;12.15;7.38;;;6.80;97.20;;;;;;5117805;28;20078;-81
2021/03/05 10:49:19;;;;;;;12.30;7.07;;;6.80;97.20;;;;;;5115903;28;20514;-82
2021/03/05 10:51:45;;;;;;;12.30;7.07;;;6.80;97.20;;;;;;5092256;28;20130;-79
2021/03/05 10:54:12;;;;;;;12.75;7.20;;;6.90;97.20;;;;;;5113183;28;20425;-81
2021/03/05 10:56:39;;;;;;;12.68;7.47;;;6.90;97.20;;;;;;5096782;28;20075;-79
2021/03/05 10:59:06;;;;;;;10.38;6.20;;;6.90;97.00;;;;;;5115719;28;20052;-80
2021/03/05 11:01:32;;;;;;;11.88;7.15;;;6.80;97.00;;;;;;5115518;28;20079;-80
2021/03/05 11:04:00;;;;;;;11.65;6.68;;;6.80;96.80;;;;;;5116029;28;20123;-80
2021/03/05 11:06:26;;;;;;;9.98;5.85;;;6.70;97.20;;;;;;5116062;28;20139;-80
2021/03/05 11:08:53;;;;;;;12.70;6.75;;;6.70;97.10;;;;;;5115963;28;20188;-79
2021/03/05 11:11:20;;;;;;;11.93;6.38;;;6.70;97.40;;;;;;5115766;28;20576;-80
2021/03/05 11:13:46;;;;;;;11.55;6.35;;;6.70;97.10;;;;;;5115864;28;20127;-80
2021/03/05 11:16:13;;;;;;;12.15;6.60;;;6.70;97.20;;;;;;5116007;28;20134;-80
2021/03/05 11:18:39;;;;;;;12.38;6.70;;;6.70;97.30;;;;;;5115928;28;20134;-80
2021/03/05 11:21:07;;;;;;;11.80;6.97;;;6.70;97.40;;;;;;5115913;28;20567;-80
2021/03/05 11:23:33;;;;;;;11.07;6.70;;;6.80;97.30;;;;;;5115869;28;20135;-79
2021/03/05 11:26:00;;;;;;;11.95;6.88;;;6.90;97.10;;;;;;5115751;28;20134;-80
2021/03/05 11:28:27;;;;;;;12.13;7.20;;;6.90;97.10;;;;;;5115974;28;20136;-79
2021/03/05 11:30:53;;;;;;;11.73;7.15;;;6.90;97.00;;;;;;5116230;28;20058;-80
2021/03/05 11:33:20;;;;;;;13.40;7.05;;;7.00;96.80;;;;;;5115774;28;20128;-79
2021/03/05 11:35:47;;;;;;;10.50;6.10;;;7.00;96.60;;;;;;5115594;28;20075;-80
2021/03/05 11:38:14;;;;;;;11.23;6.65;;;7.10;96.60;;;;;;5097558;28;20449;-79
2021/03/05 11:40:40;;;;;;;12.02;6.68;;;7.10;96.40;;;;;;5115512;28;20188;-80
2021/03/05 11:43:07;;;;;;;11.02;6.35;;;7.00;96.40;;;;;;5097311;28;20047;-79
2021/03/05 11:45:34;;;;;;;11.57;6.60;;;7.00;96.50;;;;;;5115522;28;20086;-80
2021/03/05 11:48:00;;;;;;;12.82;7.07;;;6.90;96.50;;;;;;5115196;28;20047;-79
2021/03/05 11:50:27;;;;;;;11.77;7.05;;;7.00;96.70;;;;;;5115205;28;20150;-80
2021/03/05 11:52:53;;;;;;;12.10;6.90;;;7.00;96.30;;;;;;5097039;28;20043;-80
2021/03/05 11:55:21;;;;;;;13.30;7.30;;;6.80;96.40;;;;;;5115319;28;20082;-79
2021/03/05 11:57:47;;;;;;;13.80;7.70;;;6.90;96.40;;;;;;5115209;28;20564;-80
2021/03/05 12:00:16;;;;;;;12.63;6.70;;;6.90;96.30;;;;;;5097199;28;20143;-80
2021/03/05 12:02:43;;;;;;;11.63;6.88;;;6.90;96.40;;;;;;5114901;28;20130;-80
2021/03/05 12:05:12;;;;;;;13.82;7.55;;;6.90;96.30;;;;;;5115227;28;20040;-79
2021/03/05 12:07:38;;;;;;;11.80;6.95;;;6.90;96.30;;;;;;5114549;28;20502;-79
2021/03/05 12:10:06;;;;;;;11.75;7.05;;;6.90;96.30;;;;;;5114991;28;20131;-80
2021/03/05 12:12:34;;;;;;;11.32;6.90;;;6.90;96.40;;;;;;5097082;28;20056;-80
2021/03/05 12:15:00;;;;;;;13.77;7.68;;;6.90;96.50;;;;;;5096536;28;20118;-80
2021/03/05 12:17:27;;;;;;;12.98;7.15;;;6.90;96.50;;;;;;5130890;27;20082;-80
2021/03/05 12:19:54;;;;;;;11.73;7.15;;;7.00;96.50;;;;;;5114923;28;20128;-80
2021/03/05 12:22:20;;;;;;;12.50;7.03;;;7.00;96.60;;;;;;5131047;27;20134;-80
2021/03/05 12:24:47;;;;;;;12.27;7.50;;;7.10;96.70;;;;;;5114657;28;20079;-79
2021/03/05 12:27:14;;;;;;;13.52;7.28;;;7.10;96.30;;;;;;5115234;28;20493;-80
2021/03/05 12:29:41;;;;;;;15.93;8.68;;;7.10;96.40;;;;;;5096771;28;20126;-79
2021/03/05 12:32:08;;;;;;;12.10;7.22;;;7.10;95.80;;;;;;5115061;28;20051;-79
2021/03/05 12:34:35;;;;;;;12.02;6.82;;;7.10;96.10;;;;;;5114988;28;20479;-79
2021/03/05 12:37:03;;;;;;;13.48;7.15;;;7.00;96.30;;;;;;5115062;28;20123;-79
2021/03/05 12:39:29;;;;;;;13.88;6.90;;;7.00;96.10;;;;;;5115103;28;20118;-80
2021/03/05 12:41:56;;;;;;;14.35;7.70;;;7.00;95.70;;;;;;5114108;28;20132;-79
2021/03/05 12:44:23;;;;;;;12.95;7.35;;;7.00;95.80;;;;;;5114384;28;20062;-82
2021/03/05 12:46:51;;;;;;;12.73;7.10;;;6.90;95.70;;;;;;5096030;28;20135;-81
2021/03/05 12:49:18;;;;;;;12.98;7.10;;;6.80;95.70;;;;;;5113946;27;20097;-82
2021/03/05 12:51:45;;;;;;;13.30;7.50;;;6.90;95.60;;;;;;5091221;28;20108;-80
2021/03/05 12:54:11;;;;;;;12.20;6.70;;;6.70;95.60;;;;;;5091606;28;20054;-81
2021/03/05 12:56:38;;;;;;;10.95;6.35;;;6.80;95.70;;;;;;5113172;27;20126;-80
2021/03/05 12:59:05;;;;;;;12.77;6.93;;;6.90;96.00;;;;;;5122995;27;20469;-81
2021/03/05 13:01:32;;;;;;;11.30;7.00;;;6.80;95.90;;;;;;5112032;28;20143;-80
2021/03/05 13:03:59;;;;;;;13.57;7.50;;;6.90;96.10;;;;;;5111918;28;20123;-80